Time;durP1;ratioP1;P1;durP2;ratioP2;P2;SDS_P1;SDS_P2;PMS_P1;PMS_P2;Temp;Humidity;BMP_temperature;BMP_pressure;BME280_temperature;BME280_humidity;BME280_pressure;Samples;Min_cycle;Max_cycle;Signal;HPM_P1;HPM_P2
2022/04/25 00:00:04;;;;;;;3.77;1.73;;;;;;;;;;6190498;23;20262;-84
2022/04/25 00:02:35;;;;;;;2.10;1.70;;;;;;;;;;6190349;23;20245;-86
2022/04/25 00:05:04;;;;;;;1.33;1.23;;;;;;;;;;6215734;23;20261;-85
2022/04/25 00:07:33;;;;;;;2.93;2.63;;;;;;;;;;6190366;23;20183;-84
2022/04/25 00:10:01;;;;;;;3.50;2.67;;;;;;;;;;6190514;23;20197;-84
2022/04/25 00:12:30;;;;;;;4.43;2.67;;;;;;;;;;6190280;23;20182;-84
2022/04/25 00:14:58;;;;;;;2.47;2.27;;;;;;;;;;6190331;23;20175;-84
2022/04/25 00:17:26;;;;;;;2.23;2.03;;;;;;;;;;6215982;23;20190;-85
2022/04/25 00:19:56;;;;;;;4.00;2.80;;;;;;;;;;6216501;23;20176;-84
2022/04/25 00:22:25;;;;;;;1.47;1.37;;;;;;;;;;6189978;23;20178;-84
2022/04/25 00:24:53;;;;;;;2.07;1.70;;;;;;;;;;6216680;23;20197;-84
2022/04/25 00:27:22;;;;;;;2.90;2.40;;;;;;;;;;6190053;23;20175;-84
2022/04/25 00:29:55;;;;;;;5.77;2.20;;;;;;;;;;6189276;23;20269;-84
2022/04/25 00:32:23;;;;;;;4.10;2.30;;;;;;;;;;6189756;23;20198;-83
2022/04/25 00:34:51;;;;;;;2.50;2.27;;;;;;;;;;6189670;23;20178;-84
2022/04/25 00:37:21;;;;;;;1.20;1.20;;;;;;;;;;6190359;23;20199;-84
2022/04/25 00:39:50;;;;;;;4.23;3.27;;;;;;;;;;6189774;23;20216;-84
2022/04/25 00:42:18;;;;;;;1.77;1.60;;;;;;;;;;6190148;23;20181;-84
2022/04/25 00:44:47;;;;;;;6.73;3.73;;;;;;;;;;6189674;23;20257;-84
2022/04/25 00:47:16;;;;;;;2.47;2.00;;;;;;;;;;6189777;23;20174;-84
2022/04/25 00:49:44;;;;;;;3.30;3.00;;;;;;;;;;6190023;23;20261;-84
2022/04/25 00:52:12;;;;;;;10.50;3.37;;;;;;;;;;6215210;23;20177;-84
2022/04/25 00:54:42;;;;;;;5.37;2.97;;;;;;;;;;6189826;23;20213;-84
2022/04/25 00:57:11;;;;;;;6.60;4.03;;;;;;;;;;6189663;23;20249;-84
2022/04/25 00:59:39;;;;;;;2.20;1.97;;;;;;;;;;6216270;23;20174;-84
2022/04/25 01:02:08;;;;;;;5.13;2.50;;;;;;;;;;6190119;23;20238;-85
2022/04/25 01:04:37;;;;;;;6.23;2.67;;;;;;;;;;6215881;23;20193;-85
2022/04/25 01:07:05;;;;;;;1.90;1.80;;;;;;;;;;6189913;23;20194;-84
2022/04/25 01:09:34;;;;;;;3.87;2.77;;;;;;;;;;6189753;23;20233;-84
2022/04/25 01:12:04;;;;;;;2.53;2.33;;;;;;;;;;6216385;23;20181;-84
2022/04/25 01:14:32;;;;;;;9.17;2.37;;;;;;;;;;6216191;23;20241;-83
2022/04/25 01:17:02;;;;;;;3.10;2.03;;;;;;;;;;6189788;23;20194;-85
2022/04/25 01:19:31;;;;;;;2.87;2.50;;;;;;;;;;6189825;23;20265;-85
2022/04/25 01:22:00;;;;;;;2.73;2.50;;;;;;;;;;6215860;23;20173;-84
2022/04/25 01:27:17;;;;;;;3.80;3.00;;;;;;;;;;6189438;23;20253;-84
2022/04/25 01:29:46;;;;;;;2.97;2.77;;;;;;;;;;6214417;23;20178;-84
2022/04/25 01:32:14;;;;;;;5.57;2.50;;;;;;;;;;6215783;23;20174;-85
2022/04/25 01:34:43;;;;;;;3.87;2.47;;;;;;;;;;6189695;23;20257;-84
2022/04/25 01:37:12;;;;;;;3.93;3.17;;;;;;;;;;6189466;23;20190;-84
2022/04/25 01:39:42;;;;;;;3.53;3.10;;;;;;;;;;6189218;23;20217;-84
2022/04/25 01:42:11;;;;;;;5.60;3.57;;;;;;;;;;6189495;23;20182;-85
2022/04/25 01:44:40;;;;;;;3.03;2.73;;;;;;;;;;6189551;23;20181;-83
2022/04/25 01:47:09;;;;;;;4.67;3.73;;;;;;;;;;6189370;23;20174;-84
2022/04/25 01:49:38;;;;;;;12.17;5.13;;;;;;;;;;6189172;23;20201;-84
2022/04/25 01:52:08;;;;;;;3.73;3.07;;;;;;;;;;6215847;23;20182;-84
2022/04/25 01:54:37;;;;;;;3.27;2.80;;;;;;;;;;6215565;23;20173;-84
2022/04/25 01:57:06;;;;;;;3.87;3.03;;;;;;;;;;6189314;23;20201;-84
2022/04/25 01:59:35;;;;;;;7.07;3.57;;;;;;;;;;6188780;23;20174;-84
2022/04/25 02:02:04;;;;;;;7.13;4.70;;;;;;;;;;6189002;23;20178;-84
2022/04/25 02:04:33;;;;;;;11.80;3.93;;;;;;;;;;6189105;23;20260;-84
2022/04/25 02:07:02;;;;;;;4.47;2.73;;;;;;;;;;6188848;23;20194;-84
2022/04/25 02:09:35;;;;;;;7.20;3.57;;;;;;;;;;6214133;23;20178;-84
2022/04/25 02:12:04;;;;;;;7.27;3.33;;;;;;;;;;6189137;23;20181;-84
2022/04/25 02:14:35;;;;;;;4.67;2.87;;;;;;;;;;6215024;23;20202;-86
2022/04/25 02:17:04;;;;;;;4.03;2.03;;;;;;;;;;6188942;23;20188;-83
2022/04/25 02:19:35;;;;;;;3.77;2.57;;;;;;;;;;6188723;23;20178;-85
2022/04/25 02:22:04;;;;;;;10.13;5.03;;;;;;;;;;6189149;23;20209;-83
2022/04/25 02:24:32;;;;;;;5.57;3.77;;;;;;;;;;6189006;23;20191;-85
2022/04/25 02:27:03;;;;;;;6.57;4.07;;;;;;;;;;6188919;23;20182;-83
2022/04/25 02:29:32;;;;;;;5.17;3.37;;;;;;;;;;6188799;23;20178;-83
2022/04/25 02:32:02;;;;;;;6.63;5.93;;;;;;;;;;6215265;23;20181;-84
2022/04/25 02:34:31;;;;;;;5.03;3.00;;;;;;;;;;6188996;23;20185;-84
2022/04/25 02:37:01;;;;;;;3.63;3.27;;;;;;;;;;6188995;23;20182;-83
2022/04/25 02:39:29;;;;;;;9.23;4.33;;;;;;;;;;6215113;23;20210;-84
2022/04/25 02:41:58;;;;;;;6.93;4.33;;;;;;;;;;6215475;23;20175;-83
2022/04/25 02:44:26;;;;;;;6.07;4.17;;;;;;;;;;6188771;23;20195;-84
2022/04/25 02:46:55;;;;;;;12.07;4.50;;;;;;;;;;6215220;23;20252;-83
2022/04/25 02:49:25;;;;;;;3.10;2.50;;;;;;;;;;6188908;23;20175;-83
2022/04/25 02:51:53;;;;;;;11.43;5.47;;;;;;;;;;6189230;23;20185;-84
2022/04/25 02:54:22;;;;;;;12.03;6.80;;;;;;;;;;6188571;23;20185;-84
2022/04/25 02:56:50;;;;;;;8.33;5.03;;;;;;;;;;6215128;23;20167;-84
2022/04/25 02:59:19;;;;;;;3.93;3.50;;;;;;;;;;6188604;23;20198;-84
2022/04/25 03:01:48;;;;;;;5.80;4.50;;;;;;;;;;6188544;23;20200;-84
2022/04/25 03:04:16;;;;;;;8.87;4.87;;;;;;;;;;6214916;23;20166;-84
2022/04/25 03:06:46;;;;;;;5.13;3.60;;;;;;;;;;6213753;23;20197;-83
2022/04/25 03:09:14;;;;;;;7.13;4.73;;;;;;;;;;6188647;23;20170;-85
2022/04/25 03:11:43;;;;;;;5.97;5.03;;;;;;;;;;6215085;23;20253;-84
2022/04/25 03:14:11;;;;;;;7.07;5.13;;;;;;;;;;6188444;23;20201;-84
2022/04/25 03:16:40;;;;;;;3.90;3.57;;;;;;;;;;6188528;23;20178;-83
2022/04/25 03:19:09;;;;;;;3.80;3.50;;;;;;;;;;6188122;23;20194;-84
2022/04/25 03:21:37;;;;;;;4.63;3.60;;;;;;;;;;6214015;23;20228;-84
2022/04/25 03:24:07;;;;;;;5.17;4.10;;;;;;;;;;6188962;23;20178;-83
2022/04/25 03:26:37;;;;;;;6.73;4.63;;;;;;;;;;6188863;23;20213;-86
2022/04/25 03:29:05;;;;;;;8.03;5.03;;;;;;;;;;6215169;23;20252;-83
2022/04/25 03:31:34;;;;;;;5.23;3.43;;;;;;;;;;6214568;23;20177;-84
2022/04/25 03:34:02;;;;;;;4.43;3.73;;;;;;;;;;6188567;23;20257;-83
2022/04/25 03:36:31;;;;;;;4.50;3.57;;;;;;;;;;6188176;23;20182;-83
2022/04/25 03:39:00;;;;;;;2.30;2.20;;;;;;;;;;6188194;23;20206;-84
2022/04/25 03:41:31;;;;;;;4.43;2.13;;;;;;;;;;6188798;23;20181;-83
2022/04/25 03:43:59;;;;;;;2.87;2.30;;;;;;;;;;6188485;23;20198;-83
2022/04/25 03:46:29;;;;;;;4.97;2.73;;;;;;;;;;6188360;23;20257;-83
2022/04/25 03:48:57;;;;;;;3.47;3.27;;;;;;;;;;6188350;23;20184;-85
2022/04/25 03:51:25;;;;;;;3.97;3.03;;;;;;;;;;6213621;23;20178;-83
2022/04/25 03:53:54;;;;;;;6.33;3.87;;;;;;;;;;6213281;23;20178;-83
2022/04/25 03:59:09;;;;;;;3.13;1.40;;;;;;;;;;6188283;23;20201;-83
2022/04/25 04:01:38;;;;;;;1.97;1.73;;;;;;;;;;6214537;23;20257;-84
2022/04/25 04:04:07;;;;;;;4.33;2.67;;;;;;;;;;6188941;23;20240;-83
2022/04/25 04:06:37;;;;;;;5.77;2.87;;;;;;;;;;6188586;23;20201;-83
2022/04/25 04:11:48;;;;;;;4.57;2.73;;;;;;;;;;6187094;23;20184;-83
2022/04/25 04:14:17;;;;;;;3.87;3.27;;;;;;;;;;6188273;23;20178;-84
2022/04/25 04:16:46;;;;;;;2.00;1.87;;;;;;;;;;6214363;23;20171;-83
2022/04/25 04:19:14;;;;;;;9.13;5.83;;;;;;;;;;6188443;23;20194;-83
2022/04/25 04:21:43;;;;;;;3.43;3.13;;;;;;;;;;6214672;23;20172;-84
2022/04/25 04:24:11;;;;;;;9.67;3.23;;;;;;;;;;6188463;23;20179;-83
2022/04/25 04:26:39;;;;;;;5.23;2.87;;;;;;;;;;6188581;23;20184;-85
2022/04/25 04:29:08;;;;;;;4.23;3.00;;;;;;;;;;6188386;23;20177;-84
2022/04/25 04:31:38;;;;;;;4.30;2.63;;;;;;;;;;6189177;23;20259;-84
2022/04/25 04:34:06;;;;;;;3.40;3.10;;;;;;;;;;6190245;23;20174;-84
2022/04/25 04:36:34;;;;;;;8.93;3.10;;;;;;;;;;6190120;23;20188;-84
2022/04/25 04:39:03;;;;;;;7.80;4.77;;;;;;;;;;6189520;23;20221;-84
2022/04/25 04:41:31;;;;;;;4.67;3.70;;;;;;;;;;6189960;23;20181;-84
2022/04/25 04:43:59;;;;;;;4.90;3.53;;;;;;;;;;6190188;23;20181;-84
2022/04/25 04:46:28;;;;;;;3.37;3.07;;;;;;;;;;6190117;23;20276;-84
2022/04/25 04:48:58;;;;;;;5.17;4.50;;;;;;;;;;6189825;23;20170;-84
2022/04/25 04:51:26;;;;;;;8.93;5.43;;;;;;;;;;6216072;23;20178;-84
2022/04/25 04:53:55;;;;;;;5.30;4.27;;;;;;;;;;6190190;23;20235;-84
2022/04/25 04:56:23;;;;;;;6.37;4.70;;;;;;;;;;6214585;23;20189;-84
2022/04/25 04:58:51;;;;;;;3.30;3.00;;;;;;;;;;6189874;23;20198;-84
2022/04/25 05:01:20;;;;;;;7.57;3.97;;;;;;;;;;6189984;23;20192;-84
2022/04/25 05:03:55;;;;;;;11.23;5.90;;;;;;;;;;6190239;23;20170;-84
2022/04/25 05:06:25;;;;;;;5.43;4.07;;;;;;;;;;6189629;23;20256;-84
2022/04/25 05:08:54;;;;;;;7.93;6.70;;;;;;;;;;6190114;23;20237;-85
2022/04/25 05:11:22;;;;;;;5.23;4.23;;;;;;;;;;6189329;23;20214;-85
2022/04/25 05:13:51;;;;;;;8.20;6.70;;;;;;;;;;6189986;23;20219;-84
2022/04/25 05:16:19;;;;;;;9.07;5.17;;;;;;;;;;6189790;23;20181;-84
2022/04/25 05:18:48;;;;;;;10.53;7.50;;;;;;;;;;6215968;23;20236;-84
2022/04/25 05:21:16;;;;;;;4.27;3.83;;;;;;;;;;6189700;23;20178;-84
2022/04/25 05:23:46;;;;;;;12.57;7.63;;;;;;;;;;6189840;23;20267;-84
2022/04/25 05:26:14;;;;;;;4.93;4.43;;;;;;;;;;6190058;23;20182;-84
2022/04/25 05:28:43;;;;;;;20.40;6.10;;;;;;;;;;6189377;23;20178;-85
2022/04/25 05:31:11;;;;;;;5.37;3.93;;;;;;;;;;6189286;23;20207;-85
2022/04/25 05:33:40;;;;;;;7.17;6.10;;;;;;;;;;6189719;23;20174;-84
2022/04/25 05:36:09;;;;;;;2.80;2.60;;;;;;;;;;6189676;23;20178;-86
2022/04/25 05:38:37;;;;;;;7.23;5.60;;;;;;;;;;6189080;23;20300;-85
2022/04/25 05:41:09;;;;;;;5.60;5.00;;;;;;;;;;6215540;23;20180;-85
2022/04/25 05:43:38;;;;;;;8.10;5.97;;;;;;;;;;6189828;23;20177;-85
2022/04/25 05:46:07;;;;;;;8.40;7.50;;;;;;;;;;6189058;23;20188;-85
2022/04/25 05:54:09;;;;;;;5.57;5.07;;;;;;;;;;6189680;23;20170;-85
2022/04/25 05:56:39;;;;;;;9.70;4.17;;;;;;;;;;6189819;23;20177;-85
2022/04/25 05:59:09;;;;;;;7.80;6.30;;;;;;;;;;6189140;23;20197;-85
2022/04/25 06:01:38;;;;;;;5.90;5.33;;;;;;;;;;6189209;23;20228;-85
2022/04/25 06:04:06;;;;;;;6.03;4.93;;;;;;;;;;6189169;23;20182;-85
2022/04/25 06:06:35;;;;;;;6.03;4.73;;;;;;;;;;6189638;23;20200;-85
2022/04/25 06:09:03;;;;;;;5.40;4.57;;;;;;;;;;6189372;23;20174;-86
2022/04/25 06:11:32;;;;;;;4.37;3.93;;;;;;;;;;6189784;23;20188;-85
2022/04/25 06:14:02;;;;;;;3.80;2.80;;;;;;;;;;6215906;23;20258;-85
2022/04/25 06:16:30;;;;;;;6.47;5.63;;;;;;;;;;6215634;23;20173;-86
2022/04/25 06:18:59;;;;;;;5.53;4.23;;;;;;;;;;6189542;23;20183;-86
2022/04/25 06:21:27;;;;;;;7.77;3.30;;;;;;;;;;6189191;23;20271;-86
2022/04/25 06:23:59;;;;;;;6.83;6.07;;;;;;;;;;6215498;23;20172;-86
2022/04/25 06:26:30;;;;;;;5.27;4.50;;;;;;;;;;6215462;23;20181;-86
2022/04/25 06:28:58;;;;;;;5.27;3.57;;;;;;;;;;6189022;23;20231;-85
2022/04/25 06:31:28;;;;;;;6.03;3.50;;;;;;;;;;6188716;23;20242;-85
2022/04/25 06:33:58;;;;;;;6.57;5.63;;;;;;;;;;6189286;23;20201;-85
2022/04/25 06:36:26;;;;;;;4.70;4.00;;;;;;;;;;6189227;23;20179;-85
2022/04/25 06:38:55;;;;;;;10.40;5.13;;;;;;;;;;6215012;23;20214;-84
2022/04/25 06:41:23;;;;;;;6.67;5.27;;;;;;;;;;6189183;23;20186;-85
2022/04/25 06:43:53;;;;;;;5.37;4.87;;;;;;;;;;6216103;23;20229;-85
2022/04/25 06:46:21;;;;;;;4.73;4.10;;;;;;;;;;6189099;23;20205;-86
2022/04/25 06:51:34;;;;;;;6.37;5.00;;;;;;;;;;6187820;23;20209;-85
2022/04/25 06:54:02;;;;;;;6.90;5.63;;;;;;;;;;6188711;23;20184;-84
2022/04/25 06:56:38;;;;;;;8.20;5.80;;;;;;;;;;6188304;23;20201;-85
2022/04/25 06:59:07;;;;;;;9.73;6.73;;;;;;;;;;6188991;23;20203;-84
2022/04/25 07:01:36;;;;;;;5.20;4.10;;;;;;;;;;6188865;23;20206;-84
2022/04/25 07:04:07;;;;;;;7.83;5.47;;;;;;;;;;6187856;23;20241;-85
2022/04/25 07:06:36;;;;;;;6.80;6.17;;;;;;;;;;6188936;23;20251;-84
2022/04/25 07:09:05;;;;;;;8.63;6.00;;;;;;;;;;6189058;23;20209;-85
2022/04/25 07:11:36;;;;;;;5.87;5.07;;;;;;;;;;6213724;23;20166;-84
2022/04/25 07:14:05;;;;;;;12.23;7.90;;;;;;;;;;6189085;23;20179;-83
2022/04/25 07:16:34;;;;;;;10.07;8.30;;;;;;;;;;6215213;23;20215;-84
2022/04/25 07:19:03;;;;;;;8.70;6.17;;;;;;;;;;6188641;23;20264;-84
2022/04/25 07:30:10;;;;;;;6.20;5.00;;;;;;;;;;6189213;23;20232;-85
2022/04/25 07:32:40;;;;;;;6.67;4.93;;;;;;;;;;6188554;23;20182;-84
2022/04/25 07:35:09;;;;;;;11.83;6.53;;;;;;;;;;6189033;23;20181;-84
2022/04/25 07:38:05;;;;;;;10.07;5.20;;;;;;;;;;6185751;23;20188;-85
2022/04/25 07:41:10;;;;;;;6.13;5.53;;;;;;;;;;6213696;23;20224;-86
2022/04/25 07:43:41;;;;;;;7.03;5.73;;;;;;;;;;6186344;23;20184;-85
2022/04/25 07:46:25;;;;;;;5.83;4.30;;;;;;;;;;6177568;23;20177;-87
2022/04/25 07:48:54;;;;;;;7.50;5.63;;;;;;;;;;6187221;23;20185;-86
2022/04/25 07:51:23;;;;;;;7.20;5.77;;;;;;;;;;6187749;23;20198;-87
2022/04/25 07:53:53;;;;;;;6.93;4.83;;;;;;;;;;6186545;23;20201;-86
2022/04/25 07:56:26;;;;;;;5.20;4.60;;;;;;;;;;6186810;23;20174;-86
2022/04/25 07:58:58;;;;;;;7.70;5.53;;;;;;;;;;6186890;23;20174;-86
2022/04/25 08:01:31;;;;;;;9.13;7.23;;;;;;;;;;6186207;23;20201;-86
2022/04/25 08:04:03;;;;;;;8.57;5.90;;;;;;;;;;6187075;23;20269;-86
2022/04/25 08:06:32;;;;;;;3.63;3.33;;;;;;;;;;6187831;23;20285;-86
2022/04/25 08:09:03;;;;;;;6.97;5.07;;;;;;;;;;6188979;23;20253;-86
2022/04/25 08:11:43;;;;;;;5.63;4.43;;;;;;;;;;6188200;23;20174;-86
2022/04/25 08:19:59;;;;;;;7.17;6.37;;;;;;;;;;6189534;23;20181;-87
2022/04/25 08:22:29;;;;;;;3.80;3.50;;;;;;;;;;6189556;23;20274;-86
2022/04/25 08:25:01;;;;;;;6.47;5.83;;;;;;;;;;6190832;23;20174;-86
2022/04/25 08:27:47;;;;;;;5.57;3.53;;;;;;;;;;6190804;23;20252;-85
2022/04/25 08:30:19;;;;;;;3.03;2.67;;;;;;;;;;6190729;23;20233;-86
2022/04/25 08:32:52;;;;;;;4.30;2.83;;;;;;;;;;6189031;23;20182;-86
2022/04/25 08:35:24;;;;;;;8.30;4.37;;;;;;;;;;6188279;23;20174;-85
2022/04/25 08:37:58;;;;;;;6.93;3.87;;;;;;;;;;6188984;23;20182;-85
2022/04/25 08:40:28;;;;;;;10.33;4.73;;;;;;;;;;6187212;23;20202;-86
2022/04/25 08:43:00;;;;;;;5.07;3.13;;;;;;;;;;6187160;23;20217;-85
2022/04/25 08:45:35;;;;;;;7.17;5.00;;;;;;;;;;6187532;23;20184;-87
2022/04/25 08:48:10;;;;;;;5.37;4.23;;;;;;;;;;6187765;23;20178;-85
2022/04/25 08:50:48;;;;;;;4.73;4.03;;;;;;;;;;6184706;23;20196;-85
2022/04/25 08:53:21;;;;;;;7.63;5.50;;;;;;;;;;6177971;23;20210;-86
2022/04/25 08:55:55;;;;;;;4.97;3.80;;;;;;;;;;6182731;23;20198;-86
2022/04/25 08:58:25;;;;;;;5.93;4.83;;;;;;;;;;6184587;23;20198;-87
2022/04/25 09:00:55;;;;;;;7.87;5.30;;;;;;;;;;6186874;23;20268;-85
2022/04/25 09:03:31;;;;;;;6.43;5.20;;;;;;;;;;6212733;23;20190;-87
2022/04/25 09:06:00;;;;;;;6.97;6.00;;;;;;;;;;6186441;23;20202;-86
2022/04/25 09:08:29;;;;;;;7.60;3.70;;;;;;;;;;6185366;23;20201;-86
2022/04/25 09:14:02;;;;;;;8.03;6.97;;;;;;;;;;6162411;23;20194;-85
2022/04/25 09:16:35;;;;;;;11.20;8.83;;;;;;;;;;6209402;23;20201;-86
2022/04/25 09:19:08;;;;;;;5.57;4.67;;;;;;;;;;6186750;23;20204;-86
2022/04/25 09:21:46;;;;;;;9.20;6.77;;;;;;;;;;6186137;23;20248;-85
2022/04/25 09:24:27;;;;;;;5.60;3.93;;;;;;;;;;6185801;23;20228;-85
2022/04/25 09:27:12;;;;;;;5.13;4.63;;;;;;;;;;6186258;23;20201;-85
2022/04/25 09:29:42;;;;;;;5.97;4.93;;;;;;;;;;6186053;23;20256;-85
2022/04/25 09:32:14;;;;;;;9.73;6.30;;;;;;;;;;6185222;23;20221;-85
2022/04/25 09:35:04;;;;;;;11.80;6.60;;;;;;;;;;6186233;23;20191;-86
2022/04/25 09:37:54;;;;;;;5.77;5.27;;;;;;;;;;6185261;23;20223;-87
2022/04/25 09:40:27;;;;;;;4.10;3.43;;;;;;;;;;6184234;23;20194;-88
2022/04/25 09:43:19;;;;;;;8.03;4.83;;;;;;;;;;6185881;23;20201;-86
2022/04/25 09:46:02;;;;;;;4.97;4.50;;;;;;;;;;6185156;23;20220;-86
2022/04/25 09:48:30;;;;;;;3.87;3.47;;;;;;;;;;6183677;23;20277;-86
2022/04/25 09:51:00;;;;;;;4.30;3.33;;;;;;;;;;6185067;23;20198;-86
2022/04/25 09:53:47;;;;;;;9.40;6.67;;;;;;;;;;6185761;23;20201;-85
2022/04/25 09:56:22;;;;;;;8.37;4.67;;;;;;;;;;6188399;23;20195;-86
2022/04/25 09:59:00;;;;;;;7.17;5.37;;;;;;;;;;6185162;23;20281;-87
2022/04/25 10:01:43;;;;;;;9.83;7.83;;;;;;;;;;6212068;23;20233;-87
2022/04/25 10:04:36;;;;;;;4.67;3.73;;;;;;;;;;6183012;23;20289;-86
2022/04/25 10:07:17;;;;;;;5.83;4.83;;;;;;;;;;6184361;23;20200;-86
2022/04/25 10:15:50;;;;;;;7.73;5.40;;;;;;;;;;6100750;23;20266;-85
2022/04/25 10:18:39;;;;;;;5.63;4.63;;;;;;;;;;6176910;23;20198;-86
2022/04/25 10:28:54;;;;;;;8.83;7.90;;;;;;;;;;6097027;23;20193;-90
2022/04/25 10:32:01;;;;;;;7.33;6.03;;;;;;;;;;6135863;23;20437;-88
2022/04/25 10:34:47;;;;;;;8.53;6.90;;;;;;;;;;6187007;23;20194;-87
2022/04/25 10:52:56;;;;;;;12.63;8.50;;;;;;;;;;6186717;23;20177;-88
2022/04/25 10:55:43;;;;;;;8.90;5.83;;;;;;;;;;6185540;23;20214;-87
2022/04/25 10:58:22;;;;;;;6.70;6.10;;;;;;;;;;6185236;23;20177;-82
2022/04/25 11:00:54;;;;;;;10.85;7.82;;;;;;;;;;6180414;23;20418;-85
2022/04/25 11:03:33;;;;;;;7.53;5.43;;;;;;;;;;6180888;23;20241;-85
2022/04/25 11:06:06;;;;;;;8.30;6.27;;;;;;;;;;6181610;23;20288;-85
2022/04/25 11:08:36;;;;;;;5.90;5.27;;;;;;;;;;6183709;23;20216;-84
2022/04/25 11:11:13;;;;;;;6.83;6.17;;;;;;;;;;6184878;23;20197;-85
2022/04/25 11:14:07;;;;;;;12.53;8.97;;;;;;;;;;6182575;23;20194;-85
2022/04/25 11:16:38;;;;;;;12.50;8.27;;;;;;;;;;6183521;23;20195;-86
2022/04/25 11:19:11;;;;;;;10.23;9.13;;;;;;;;;;6208640;23;20212;-85
2022/04/25 11:21:45;;;;;;;7.30;6.07;;;;;;;;;;6183944;23;20576;-85
2022/04/25 11:24:35;;;;;;;4.53;4.17;;;;;;;;;;6183505;23;20198;-85
2022/04/25 11:27:11;;;;;;;8.93;7.53;;;;;;;;;;6183382;23;20194;-85
2022/04/25 11:29:47;;;;;;;8.13;5.33;;;;;;;;;;6183206;23;20229;-85
2022/04/25 11:32:37;;;;;;;10.00;8.13;;;;;;;;;;6182575;23;20196;-85
2022/04/25 11:35:09;;;;;;;7.03;6.10;;;;;;;;;;6182817;23;20288;-82
2022/04/25 11:37:38;;;;;;;6.00;5.40;;;;;;;;;;6182515;23;20217;-85
2022/04/25 11:40:07;;;;;;;13.37;8.27;;;;;;;;;;6177405;23;20242;-85
2022/04/25 11:42:38;;;;;;;6.50;5.80;;;;;;;;;;6181469;23;20225;-83
2022/04/25 11:45:15;;;;;;;9.77;7.43;;;;;;;;;;6180026;23;20197;-85
2022/04/25 11:47:47;;;;;;;7.60;6.80;;;;;;;;;;6180353;23;20231;-85
2022/04/25 11:50:20;;;;;;;3.60;3.30;;;;;;;;;;6179685;23;20221;-83
2022/04/25 11:52:51;;;;;;;8.60;7.20;;;;;;;;;;6181290;23;20191;-83
2022/04/25 11:55:31;;;;;;;10.83;8.07;;;;;;;;;;6181552;23;20198;-83
2022/04/25 11:58:01;;;;;;;5.60;3.97;;;;;;;;;;6180321;23;20200;-83
2022/04/25 12:00:33;;;;;;;8.30;7.40;;;;;;;;;;6180725;23;20199;-83
2022/04/25 12:03:05;;;;;;;4.70;3.70;;;;;;;;;;6179622;23;20201;-83
2022/04/25 12:05:34;;;;;;;7.67;3.90;;;;;;;;;;6180035;23;20281;-85
2022/04/25 12:16:30;;;;;;;5.40;4.80;;;;;;;;;;6179882;23;20198;-84
2022/04/25 12:19:12;;;;;;;10.90;5.93;;;;;;;;;;6181453;23;20245;-85
2022/04/25 12:21:47;;;;;;;10.27;6.77;;;;;;;;;;6180637;23;20218;-82
2022/04/25 12:24:19;;;;;;;11.77;7.80;;;;;;;;;;6181216;23;20190;-84
2022/04/25 12:26:52;;;;;;;15.70;9.47;;;;;;;;;;6180183;23;20280;-84
2022/04/25 12:29:21;;;;;;;6.60;5.27;;;;;;;;;;6182113;23;20199;-83
2022/04/25 12:31:54;;;;;;;6.13;5.40;;;;;;;;;;6181080;23;20277;-83
2022/04/25 12:34:35;;;;;;;8.87;7.30;;;;;;;;;;6181584;23;20202;-83
2022/04/25 12:37:07;;;;;;;8.47;7.63;;;;;;;;;;6181487;23;20194;-82
2022/04/25 12:39:38;;;;;;;10.50;8.43;;;;;;;;;;6180961;23;20290;-84
2022/04/25 12:42:10;;;;;;;11.80;8.00;;;;;;;;;;6181513;23;20194;-85
2022/04/25 12:44:39;;;;;;;8.90;7.30;;;;;;;;;;6182453;23;20238;-82
2022/04/25 12:47:08;;;;;;;13.33;7.83;;;;;;;;;;6179541;23;20205;-83
2022/04/25 12:49:39;;;;;;;9.23;7.77;;;;;;;;;;6178830;23;20207;-84
2022/04/25 12:52:09;;;;;;;8.53;7.27;;;;;;;;;;6179115;23;20198;-83
2022/04/25 12:54:49;;;;;;;12.50;8.70;;;;;;;;;;6179961;23;20229;-83
2022/04/25 12:57:20;;;;;;;11.13;6.97;;;;;;;;;;6181188;23;20190;-82
2022/04/25 12:59:59;;;;;;;9.87;6.97;;;;;;;;;;6180361;23;20199;-84
2022/04/25 13:02:35;;;;;;;5.33;3.27;;;;;;;;;;6180801;23;20348;-83
2022/04/25 13:05:10;;;;;;;10.13;6.73;;;;;;;;;;6178471;23;20258;-83
2022/04/25 13:07:40;;;;;;;7.57;6.53;;;;;;;;;;6178283;23;20629;-84
2022/04/25 13:10:11;;;;;;;7.13;5.90;;;;;;;;;;6181879;23;20190;-85
2022/04/25 13:12:41;;;;;;;6.33;5.73;;;;;;;;;;6178877;23;20273;-83
2022/04/25 13:15:13;;;;;;;6.77;5.20;;;;;;;;;;6181120;23;20203;-85
2022/04/25 13:17:48;;;;;;;10.83;7.77;;;;;;;;;;6180046;23;20195;-84
2022/04/25 13:20:20;;;;;;;7.03;5.83;;;;;;;;;;6179931;23;20199;-85
2022/04/25 13:22:56;;;;;;;10.30;7.17;;;;;;;;;;6180275;23;20205;-84
2022/04/25 13:25:24;;;;;;;8.90;7.80;;;;;;;;;;6179422;23;20195;-85
2022/04/25 13:27:55;;;;;;;9.43;7.50;;;;;;;;;;6183569;23;20207;-82
2022/04/25 13:30:24;;;;;;;8.17;6.33;;;;;;;;;;6181462;23;20257;-83
2022/04/25 13:32:55;;;;;;;9.60;5.67;;;;;;;;;;6181045;23;20432;-83
2022/04/25 13:35:25;;;;;;;12.80;6.60;;;;;;;;;;6179455;23;20503;-81
2022/04/25 13:37:54;;;;;;;5.10;4.23;;;;;;;;;;6203831;23;20191;-82
2022/04/25 13:40:23;;;;;;;8.30;5.57;;;;;;;;;;6179657;23;20211;-82
2022/04/25 13:42:52;;;;;;;4.10;3.17;;;;;;;;;;6177989;23;20238;-83
2022/04/25 13:45:21;;;;;;;11.93;8.60;;;;;;;;;;6177942;23;20205;-83
2022/04/25 13:47:50;;;;;;;10.03;7.17;;;;;;;;;;6178396;23;20203;-82
2022/04/25 13:50:18;;;;;;;7.57;6.33;;;;;;;;;;6178969;23;20277;-83
2022/04/25 13:52:49;;;;;;;6.90;5.47;;;;;;;;;;6178168;23;20205;-81
2022/04/25 13:55:18;;;;;;;7.97;5.53;;;;;;;;;;6180062;23;20191;-82
2022/04/25 13:57:47;;;;;;;4.47;4.07;;;;;;;;;;6180467;23;20282;-82
2022/04/25 14:00:16;;;;;;;6.77;5.77;;;;;;;;;;6178193;23;20195;-83
2022/04/25 14:05:31;;;;;;;6.77;5.47;;;;;;;;;;6179461;23;20210;-81
2022/04/25 14:08:00;;;;;;;6.23;4.63;;;;;;;;;;6179388;23;20230;-83
2022/04/25 14:10:32;;;;;;;6.90;5.37;;;;;;;;;;6177688;23;20222;-83
2022/04/25 14:13:02;;;;;;;6.40;4.83;;;;;;;;;;6202419;23;20195;-83
2022/04/25 14:15:31;;;;;;;7.90;3.90;;;;;;;;;;6179684;23;20205;-82
2022/04/25 14:18:00;;;;;;;8.47;6.50;;;;;;;;;;6179008;23;20219;-83
2022/04/25 14:20:30;;;;;;;5.93;5.33;;;;;;;;;;6178693;23;20200;-83
2022/04/25 14:23:05;;;;;;;3.83;3.47;;;;;;;;;;6179270;23;20203;-84
2022/04/25 14:25:37;;;;;;;5.50;4.10;;;;;;;;;;6177375;23;20271;-83
2022/04/25 14:28:12;;;;;;;4.40;3.67;;;;;;;;;;6178427;23;20222;-83
2022/04/25 14:30:42;;;;;;;5.57;5.03;;;;;;;;;;6178712;23;20200;-82
2022/04/25 14:33:11;;;;;;;8.67;4.53;;;;;;;;;;6176878;23;20199;-83
2022/04/25 14:35:40;;;;;;;5.87;4.97;;;;;;;;;;6179749;23;20207;-84
2022/04/25 14:38:12;;;;;;;5.93;4.53;;;;;;;;;;6178371;23;20198;-84
2022/04/25 14:40:41;;;;;;;5.93;4.80;;;;;;;;;;6183862;23;20194;-82
2022/04/25 14:43:10;;;;;;;7.07;4.60;;;;;;;;;;6207991;23;20222;-83
2022/04/25 14:45:42;;;;;;;5.63;4.73;;;;;;;;;;6182330;23;20252;-83
2022/04/25 14:48:11;;;;;;;5.63;4.43;;;;;;;;;;6182939;23;20198;-83
2022/04/25 14:56:16;;;;;;;9.33;4.60;;;;;;;;;;6183202;23;20221;-82
2022/04/25 14:58:45;;;;;;;6.57;5.57;;;;;;;;;;6183594;23;20198;-84
2022/04/25 15:01:14;;;;;;;10.53;5.00;;;;;;;;;;6183362;23;20191;-83
2022/04/25 15:03:44;;;;;;;3.50;3.20;;;;;;;;;;6182753;23;20301;-84
2022/04/25 15:06:12;;;;;;;5.00;3.67;;;;;;;;;;6183308;23;20231;-83
2022/04/25 15:08:42;;;;;;;7.53;6.27;;;;;;;;;;6183095;23;20222;-83
2022/04/25 15:11:11;;;;;;;6.90;5.30;;;;;;;;;;6184388;23;20214;-84
2022/04/25 15:13:40;;;;;;;4.97;3.60;;;;;;;;;;6184676;23;20191;-83
2022/04/25 15:16:09;;;;;;;9.97;4.73;;;;;;;;;;6184577;23;20196;-84
2022/04/25 15:18:38;;;;;;;3.90;3.60;;;;;;;;;;6208546;23;20194;-84
2022/04/25 15:21:12;;;;;;;6.00;5.40;;;;;;;;;;6182973;23;20198;-83
2022/04/25 15:23:46;;;;;;;11.87;2.83;;;;;;;;;;6186562;23;20205;-84
2022/04/25 15:26:14;;;;;;;3.73;2.80;;;;;;;;;;6183336;23;20195;-83
2022/04/25 15:28:43;;;;;;;8.80;4.90;;;;;;;;;;6183617;23;20202;-84
2022/04/25 15:31:12;;;;;;;8.77;5.97;;;;;;;;;;6185485;23;20198;-83
2022/04/25 15:33:40;;;;;;;5.97;5.37;;;;;;;;;;6185005;23;20192;-84
2022/04/25 15:36:09;;;;;;;5.80;4.70;;;;;;;;;;6182704;23;20203;-85
2022/04/25 15:38:37;;;;;;;7.93;4.73;;;;;;;;;;6182680;23;20237;-83
2022/04/25 15:41:07;;;;;;;7.10;5.13;;;;;;;;;;6183130;23;20211;-85
2022/04/25 15:43:36;;;;;;;5.80;4.07;;;;;;;;;;6181009;23;20195;-85
2022/04/25 15:46:04;;;;;;;8.40;6.40;;;;;;;;;;6184538;23;20183;-84
2022/04/25 15:48:36;;;;;;;6.97;3.40;;;;;;;;;;6184448;23;20178;-83
2022/04/25 15:51:04;;;;;;;4.23;3.30;;;;;;;;;;6183781;23;20184;-84
2022/04/25 15:59:06;;;;;;;6.70;5.27;;;;;;;;;;6185366;23;20174;-83
2022/04/25 16:01:35;;;;;;;10.17;3.20;;;;;;;;;;6184423;23;20182;-84
2022/04/25 16:04:03;;;;;;;4.63;4.10;;;;;;;;;;6184199;23;20183;-85
2022/04/25 16:06:32;;;;;;;6.83;4.63;;;;;;;;;;6183711;23;20207;-85
2022/04/25 16:09:00;;;;;;;9.43;5.20;;;;;;;;;;6184057;23;20413;-84
2022/04/25 16:11:30;;;;;;;5.87;4.63;;;;;;;;;;6183876;23;20184;-84
2022/04/25 16:13:59;;;;;;;6.40;4.73;;;;;;;;;;6183802;23;20174;-84
2022/04/25 16:16:28;;;;;;;7.00;4.97;;;;;;;;;;6209408;23;20179;-84
2022/04/25 16:18:56;;;;;;;11.13;5.33;;;;;;;;;;6183843;23;20171;-84
2022/04/25 16:21:24;;;;;;;8.27;5.80;;;;;;;;;;6183926;23;20233;-84
2022/04/25 16:23:54;;;;;;;5.30;4.73;;;;;;;;;;6209478;23;20203;-85
2022/04/25 16:26:22;;;;;;;7.50;5.20;;;;;;;;;;6183710;23;20175;-84
2022/04/25 16:28:52;;;;;;;3.77;3.50;;;;;;;;;;6208268;23;20258;-85